createdAt,value
2019-04-30T00:00:45.402Z,87.30
2019-04-30T00:01:48.478Z,86.90
2019-04-30T00:02:45.397Z,86.90
2019-04-30T00:03:46.107Z,87.20
2019-04-30T00:04:45.240Z,87.30
2019-04-30T00:05:45.072Z,87.61
2019-04-30T00:06:45.365Z,87.10
2019-04-30T00:07:46.095Z,87.71
2019-04-30T00:08:45.156Z,88.12
2019-04-30T00:09:44.970Z,88.02
2019-04-30T00:10:45.374Z,88.33
2019-04-30T00:11:45.924Z,88.74
2019-04-30T00:12:45.253Z,87.71
2019-04-30T00:13:45.832Z,87.82
2019-04-30T00:14:44.876Z,87.51
2019-04-30T00:15:45.275Z,88.33
2019-04-30T00:16:45.119Z,88.02
2019-04-30T00:17:45.628Z,88.43
2019-04-30T00:18:57.129Z,87.92
2019-04-30T00:19:45.903Z,87.71
2019-04-30T00:20:45.348Z,87.51
2019-04-30T00:21:48.291Z,87.30
2019-04-30T00:22:47.032Z,88.02
2019-04-30T00:23:45.911Z,88.02
2019-04-30T00:24:46.823Z,87.82
2019-04-30T00:25:46.034Z,87.30
2019-04-30T00:26:46.716Z,87.61
2019-04-30T00:27:45.892Z,86.79
2019-04-30T00:28:46.822Z,86.69
2019-04-30T00:29:45.631Z,87.20
2019-04-30T00:30:45.133Z,86.38
2019-04-30T00:31:44.683Z,86.38
2019-04-30T00:32:45.601Z,85.97
2019-04-30T00:33:44.942Z,85.67
2019-04-30T00:34:45.502Z,86.29
2019-04-30T00:35:45.326Z,87.00
2019-04-30T00:36:43.610Z,87.41
2019-04-30T00:37:44.919Z,87.82
2019-04-30T00:38:44.828Z,87.30
2019-04-30T00:39:50.737Z,87.61
2019-04-30T00:40:45.058Z,87.20
2019-04-30T00:41:47.326Z,87.41
2019-04-30T00:42:43.545Z,87.35
2019-04-30T00:43:48.006Z,86.83
2019-04-30T00:44:45.630Z,86.53
2019-04-30T00:45:44.884Z,86.90
2019-04-30T00:46:45.399Z,87.35
2019-04-30T00:47:44.505Z,87.71
2019-04-30T00:48:43.489Z,87.45
2019-04-30T00:49:44.861Z,87.65
2019-04-30T00:50:43.453Z,87.71
2019-04-30T00:51:45.286Z,87.00
2019-04-30T00:52:43.432Z,86.49
2019-04-30T00:53:43.916Z,86.79
2019-04-30T00:54:45.200Z,87.10
2019-04-30T00:55:46.786Z,87.24
2019-04-30T00:56:45.493Z,86.83
2019-04-30T00:57:46.200Z,86.59
2019-04-30T00:58:45.183Z,86.12
2019-04-30T00:59:44.610Z,86.08
2019-04-30T01:00:43.340Z,87.10
2019-04-30T01:01:47.663Z,86.94
2019-04-30T01:02:43.346Z,86.59
2019-04-30T01:03:46.477Z,86.43
2019-04-30T01:04:45.010Z,85.30
2019-04-30T01:05:44.487Z,85.67
2019-04-30T01:06:43.274Z,85.06
2019-04-30T01:07:48.815Z,85.16
2019-04-30T01:08:46.141Z,86.08
2019-04-30T01:09:46.413Z,85.67
2019-04-30T01:10:46.014Z,86.18
2019-04-30T01:11:46.788Z,85.67
2019-04-30T01:12:47.344Z,85.67
2019-04-30T01:13:50.187Z,85.97
2019-04-30T01:14:44.206Z,87.10
2019-04-30T01:15:44.038Z,87.51
2019-04-30T01:16:44.161Z,87.51
2019-04-30T01:17:45.444Z,88.33
2019-04-30T01:18:44.171Z,87.41
2019-04-30T01:19:45.990Z,87.30
2019-04-30T01:20:44.115Z,86.90
2019-04-30T01:21:46.983Z,86.63
2019-04-30T01:22:44.093Z,86.83
2019-04-30T01:23:51.928Z,86.94
2019-04-30T01:24:44.100Z,86.43
2019-04-30T01:25:47.105Z,87.76
2019-04-30T01:26:43.107Z,87.41
2019-04-30T01:27:45.613Z,87.30
2019-04-30T01:28:43.031Z,87.30
2019-04-30T01:29:44.399Z,87.35
2019-04-30T01:30:43.016Z,87.10
2019-04-30T01:31:42.997Z,86.53
2019-04-30T01:32:42.985Z,86.08
2019-04-30T01:33:42.972Z,86.12
2019-04-30T01:34:44.202Z,87.45
2019-04-30T01:35:43.953Z,87.14
2019-04-30T01:36:43.513Z,86.83
2019-04-30T01:37:42.926Z,86.63
2019-04-30T01:38:44.854Z,87.04
2019-04-30T01:39:43.906Z,86.43
2019-04-30T01:40:47.330Z,87.45
2019-04-30T01:41:43.884Z,86.94
2019-04-30T01:42:47.982Z,87.35
2019-04-30T01:43:43.862Z,87.14
2019-04-30T01:44:43.466Z,87.35
2019-04-30T01:45:42.862Z,86.43
2019-04-30T01:46:43.262Z,86.94
2019-04-30T01:47:42.815Z,86.43
2019-04-30T01:48:43.621Z,85.61
2019-04-30T01:49:44.897Z,85.81
2019-04-30T01:50:42.809Z,85.30
2019-04-30T01:51:42.771Z,85.20
2019-04-30T01:52:42.800Z,84.48
2019-04-30T01:53:43.822Z,84.79
2019-04-30T01:54:42.760Z,85.10
2019-04-30T01:55:42.781Z,85.77
2019-04-30T01:56:42.737Z,85.71
2019-04-30T01:57:42.703Z,85.91
2019-04-30T01:58:42.693Z,86.53
2019-04-30T01:59:42.709Z,85.40
2019-04-30T02:00:42.697Z,85.40
2019-04-30T02:01:42.660Z,85.67
2019-04-30T02:02:42.657Z,85.71
2019-04-30T02:03:42.637Z,85.20
2019-04-30T02:04:42.626Z,85.36
2019-04-30T02:05:42.642Z,85.20
2019-04-30T02:06:42.628Z,85.40
2019-04-30T02:07:42.597Z,86.18
2019-04-30T02:08:42.588Z,86.12
2019-04-30T02:09:42.571Z,85.30
2019-04-30T02:10:42.608Z,85.97
2019-04-30T02:11:42.553Z,86.79
2019-04-30T02:12:42.536Z,87.20
2019-04-30T02:13:42.526Z,88.17
2019-04-30T02:14:42.553Z,87.65
2019-04-30T02:15:42.535Z,86.83
2019-04-30T02:16:42.505Z,86.94
2019-04-30T02:17:42.487Z,86.94
2019-04-30T02:18:42.470Z,85.30
2019-04-30T02:19:53.905Z,85.40
2019-04-30T02:20:43.470Z,84.58
2019-04-30T02:21:42.436Z,85.20
2019-04-30T02:22:42.428Z,86.12
2019-04-30T02:23:42.414Z,85.30
2019-04-30T02:24:42.405Z,85.30
2019-04-30T02:25:42.425Z,84.79
2019-04-30T02:26:42.404Z,84.89
2019-04-30T02:27:42.368Z,84.07
2019-04-30T02:28:42.357Z,84.17
2019-04-30T02:29:42.349Z,84.17
2019-04-30T02:30:42.336Z,84.28
2019-04-30T02:31:42.350Z,85.40
2019-04-30T02:32:42.314Z,84.95
2019-04-30T02:33:42.339Z,85.81
2019-04-30T02:34:44.175Z,85.30
2019-04-30T02:35:42.287Z,85.20
2019-04-30T02:36:42.291Z,85.20
2019-04-30T02:37:43.515Z,85.10
2019-04-30T02:38:42.290Z,85.30
2019-04-30T02:39:42.241Z,85.30
2019-04-30T02:40:42.687Z,85.71
2019-04-30T02:41:42.237Z,85.20
2019-04-30T02:42:42.222Z,84.38
2019-04-30T02:43:42.191Z,83.76
2019-04-30T02:44:42.179Z,84.99
2019-04-30T02:45:42.180Z,84.89
2019-04-30T02:46:42.186Z,84.89
2019-04-30T02:47:42.145Z,84.79
2019-04-30T02:48:42.157Z,84.79
2019-04-30T02:49:42.133Z,84.69
2019-04-30T02:50:42.122Z,85.61
2019-04-30T02:51:42.127Z,85.81
2019-04-30T02:52:42.105Z,85.30
2019-04-30T02:53:42.079Z,85.40
2019-04-30T02:54:42.069Z,84.99
2019-04-30T02:55:42.063Z,84.69
2019-04-30T02:56:42.083Z,85.10
2019-04-30T02:57:42.037Z,84.69
2019-04-30T02:58:42.029Z,85.20
2019-04-30T02:59:42.013Z,85.20
2019-04-30T03:00:42.009Z,85.81
2019-04-30T03:01:42.019Z,86.83
2019-04-30T03:02:41.978Z,86.63
2019-04-30T03:03:42.717Z,87.14
2019-04-30T03:04:41.959Z,86.94
2019-04-30T03:05:41.984Z,85.81
2019-04-30T03:06:41.955Z,86.22
2019-04-30T03:07:41.922Z,86.12
2019-04-30T03:08:41.944Z,86.32
2019-04-30T03:09:41.902Z,86.73
2019-04-30T03:10:41.891Z,87.55
2019-04-30T03:11:41.882Z,86.94
2019-04-30T03:12:41.893Z,86.02
2019-04-30T03:13:42.891Z,85.10
2019-04-30T03:14:41.879Z,84.79
2019-04-30T03:15:41.834Z,85.30
2019-04-30T03:16:41.833Z,85.91
2019-04-30T03:17:41.848Z,86.02
2019-04-30T03:18:41.805Z,85.57
2019-04-30T03:19:41.795Z,86.43
2019-04-30T03:20:41.777Z,87.45
2019-04-30T03:21:41.775Z,87.85
2019-04-30T03:22:41.777Z,87.76
2019-04-30T03:23:41.762Z,86.53
2019-04-30T03:24:42.828Z,86.53
2019-04-30T03:25:41.723Z,85.81
2019-04-30T03:26:41.714Z,85.71
2019-04-30T03:27:42.562Z,85.91
2019-04-30T03:28:41.691Z,85.61
2019-04-30T03:29:41.679Z,86.02
2019-04-30T03:30:42.572Z,86.32
2019-04-30T03:31:44.691Z,85.71
2019-04-30T03:32:42.950Z,86.22
2019-04-30T03:33:42.693Z,86.43
2019-04-30T03:34:42.555Z,87.24
2019-04-30T03:35:47.453Z,87.85
2019-04-30T03:36:42.603Z,88.57
2019-04-30T03:37:41.626Z,89.50
2019-04-30T03:38:42.783Z,89.59
2019-04-30T03:39:41.565Z,88.88
2019-04-30T03:40:41.561Z,89.29
2019-04-30T03:41:41.795Z,89.50
2019-04-30T03:42:41.639Z,89.80
2019-04-30T03:43:41.519Z,89.90
2019-04-30T03:44:41.532Z,90.52
2019-04-30T03:45:41.501Z,90.00
2019-04-30T03:46:41.493Z,89.03
2019-04-30T03:47:43.271Z,88.31
2019-04-30T03:48:41.471Z,87.79
2019-04-30T03:49:41.467Z,86.57
2019-04-30T03:50:50.333Z,87.08
2019-04-30T03:51:42.433Z,86.43
2019-04-30T03:52:41.434Z,87.45
2019-04-30T03:53:42.738Z,87.35
2019-04-30T03:54:41.405Z,86.32
2019-04-30T03:55:41.391Z,87.14
2019-04-30T03:56:41.380Z,87.35
2019-04-30T03:57:41.368Z,85.91
2019-04-30T03:58:41.403Z,86.94
2019-04-30T03:59:41.344Z,86.53
2019-04-30T04:00:42.560Z,86.12
2019-04-30T04:01:41.326Z,86.12
2019-04-30T04:02:41.316Z,85.81
2019-04-30T04:03:42.262Z,86.02
2019-04-30T04:04:41.293Z,86.94
2019-04-30T04:05:41.279Z,86.94
2019-04-30T04:06:41.263Z,87.14
2019-04-30T04:07:41.259Z,87.35
2019-04-30T04:08:43.212Z,87.24
2019-04-30T04:09:41.230Z,86.83
2019-04-30T04:10:41.229Z,86.83
2019-04-30T04:11:41.211Z,86.12
2019-04-30T04:12:41.196Z,86.22
2019-04-30T04:13:41.208Z,86.63
2019-04-30T04:14:41.175Z,86.32
2019-04-30T04:15:41.165Z,85.91
2019-04-30T04:16:41.252Z,85.81
2019-04-30T04:17:41.144Z,85.71
2019-04-30T04:18:41.161Z,84.99
2019-04-30T04:19:41.120Z,85.50
2019-04-30T04:20:42.919Z,85.81
2019-04-30T04:21:41.097Z,85.81
2019-04-30T04:22:41.090Z,86.22
2019-04-30T04:23:41.125Z,86.22
2019-04-30T04:24:41.073Z,86.83
2019-04-30T04:25:41.050Z,86.43
2019-04-30T04:26:43.837Z,87.24
2019-04-30T04:27:41.054Z,87.04
2019-04-30T04:28:43.531Z,86.53
2019-04-30T04:29:41.016Z,87.04
2019-04-30T04:30:42.960Z,86.32
2019-04-30T04:31:41.001Z,86.53
2019-04-30T04:32:40.981Z,86.02
2019-04-30T04:33:41.002Z,86.12
2019-04-30T04:34:40.978Z,86.53
2019-04-30T04:35:40.947Z,86.73
2019-04-30T04:36:43.381Z,87.04
2019-04-30T04:37:40.922Z,86.32
2019-04-30T04:38:40.908Z,86.83
2019-04-30T04:39:42.075Z,86.63
2019-04-30T04:40:40.911Z,86.43
2019-04-30T04:41:44.040Z,86.22
2019-04-30T04:42:40.875Z,85.81
2019-04-30T04:43:40.849Z,86.22
2019-04-30T04:44:40.870Z,86.73
2019-04-30T04:45:43.799Z,87.55
2019-04-30T04:46:40.819Z,86.63
2019-04-30T04:47:40.813Z,86.94
2019-04-30T04:48:40.794Z,86.83
2019-04-30T04:49:40.810Z,87.24
2019-04-30T04:50:40.774Z,86.73
2019-04-30T04:51:42.303Z,86.73
2019-04-30T04:52:40.757Z,86.83
2019-04-30T04:53:40.742Z,87.04
2019-04-30T04:54:40.766Z,86.83
2019-04-30T04:55:40.718Z,87.55
2019-04-30T04:56:40.711Z,87.65
2019-04-30T04:57:40.698Z,87.76
2019-04-30T04:58:40.686Z,87.85
2019-04-30T04:59:42.618Z,87.45
2019-04-30T05:00:40.695Z,87.04
2019-04-30T05:01:40.681Z,87.61
2019-04-30T05:02:40.646Z,87.51
2019-04-30T05:03:40.629Z,87.82
2019-04-30T05:04:40.630Z,87.35
2019-04-30T05:05:40.633Z,87.45
2019-04-30T05:06:40.593Z,87.85
2019-04-30T05:07:40.584Z,87.51
2019-04-30T05:08:40.582Z,88.26
2019-04-30T05:09:40.559Z,87.82
2019-04-30T05:10:40.574Z,88.23
2019-04-30T05:11:40.570Z,88.33
2019-04-30T05:12:40.527Z,88.33
2019-04-30T05:13:40.517Z,87.92
2019-04-30T05:14:40.515Z,87.82
2019-04-30T05:15:40.519Z,88.23
2019-04-30T05:16:40.485Z,88.43
2019-04-30T05:17:40.469Z,88.12
2019-04-30T05:18:40.463Z,88.02
2019-04-30T05:19:40.449Z,88.64
2019-04-30T05:20:41.758Z,87.92
2019-04-30T05:21:44.512Z,87.71
2019-04-30T05:22:40.415Z,87.20
2019-04-30T05:23:42.671Z,86.90
2019-04-30T05:24:40.886Z,87.30
2019-04-30T05:25:40.409Z,87.92
2019-04-30T05:26:40.370Z,87.10
2019-04-30T05:27:40.360Z,87.20
2019-04-30T05:28:40.374Z,87.20
2019-04-30T05:29:40.337Z,87.10
2019-04-30T05:30:40.328Z,86.90
2019-04-30T05:31:40.343Z,87.51
2019-04-30T05:32:40.302Z,87.51
2019-04-30T05:33:40.298Z,87.51
2019-04-30T05:34:40.282Z,87.41
2019-04-30T05:35:40.273Z,87.30
2019-04-30T05:36:40.286Z,87.71
2019-04-30T05:37:40.246Z,87.61
2019-04-30T05:38:40.238Z,87.61
2019-04-30T05:39:40.230Z,87.92
2019-04-30T05:40:42.492Z,87.51
2019-04-30T05:41:41.149Z,87.51
2019-04-30T05:42:40.193Z,87.10
2019-04-30T05:43:40.182Z,87.57
2019-04-30T05:44:40.176Z,87.82
2019-04-30T05:45:40.156Z,87.67
2019-04-30T05:46:40.178Z,87.30
2019-04-30T05:47:40.138Z,87.26
2019-04-30T05:48:40.128Z,87.16
2019-04-30T05:49:40.149Z,87.67
2019-04-30T05:50:40.105Z,86.76
2019-04-30T05:51:52.385Z,87.16
2019-04-30T05:52:41.077Z,86.96
2019-04-30T05:53:40.091Z,86.76
2019-04-30T05:54:40.058Z,87.06
2019-04-30T05:55:40.048Z,87.26
2019-04-30T05:56:42.646Z,86.51
2019-04-30T05:57:52.740Z,87.16
2019-04-30T05:58:41.010Z,86.65
2019-04-30T05:59:40.042Z,86.61
2019-04-30T06:00:40.205Z,87.57
2019-04-30T06:01:39.980Z,86.91
2019-04-30T06:02:40.158Z,87.23
2019-04-30T06:03:39.958Z,86.61
2019-04-30T06:04:39.944Z,86.10
2019-04-30T06:05:39.940Z,86.41
2019-04-30T06:06:39.924Z,85.79
2019-04-30T06:07:39.952Z,85.49
2019-04-30T06:08:39.910Z,85.79
2019-04-30T06:09:39.890Z,85.69
2019-04-30T06:10:39.878Z,86.00
2019-04-30T06:11:39.898Z,86.91
2019-04-30T06:12:39.882Z,85.08
2019-04-30T06:13:40.369Z,85.59
2019-04-30T06:14:48.421Z,85.59
2019-04-30T06:15:40.828Z,85.14
2019-04-30T06:16:39.811Z,85.24
2019-04-30T06:17:39.826Z,85.86
2019-04-30T06:18:42.145Z,86.10
2019-04-30T06:19:39.783Z,86.20
2019-04-30T06:20:39.771Z,86.16
2019-04-30T06:21:39.755Z,85.14
2019-04-30T06:22:39.749Z,84.01
2019-04-30T06:23:39.761Z,83.51
2019-04-30T06:24:39.722Z,83.92
2019-04-30T06:25:55.722Z,84.42
2019-04-30T06:26:40.699Z,84.12
2019-04-30T06:27:39.687Z,83.61
2019-04-30T06:28:41.625Z,83.20
2019-04-30T06:29:39.673Z,83.85
2019-04-30T06:30:39.795Z,83.54
2019-04-30T06:31:40.423Z,83.20
2019-04-30T06:32:39.631Z,83.14
2019-04-30T06:33:39.656Z,83.40
2019-04-30T06:34:41.930Z,83.20
2019-04-30T06:35:39.604Z,83.20
2019-04-30T06:36:51.064Z,83.51
2019-04-30T06:37:40.577Z,82.79
2019-04-30T06:38:39.587Z,81.77
2019-04-30T06:39:39.553Z,81.57
2019-04-30T06:40:39.543Z,81.77
2019-04-30T06:41:41.018Z,81.37
2019-04-30T06:42:39.533Z,81.57
2019-04-30T06:43:39.534Z,82.39
2019-04-30T06:44:41.785Z,82.79
2019-04-30T06:45:39.486Z,83.20
2019-04-30T06:46:39.516Z,83.30
2019-04-30T06:47:39.474Z,82.79
2019-04-30T06:48:41.832Z,82.86
2019-04-30T06:49:39.468Z,83.00
2019-04-30T06:50:39.515Z,83.00
2019-04-30T06:51:39.423Z,83.81
2019-04-30T06:52:39.408Z,83.57
2019-04-30T06:53:39.400Z,83.87
2019-04-30T06:54:39.846Z,83.78
2019-04-30T06:55:39.460Z,82.86
2019-04-30T06:56:39.367Z,81.63
2019-04-30T06:57:39.360Z,80.82
2019-04-30T06:58:41.427Z,80.20
2019-04-30T06:59:39.718Z,80.82
2019-04-30T07:00:39.983Z,80.41
2019-04-30T07:01:39.323Z,80.71
2019-04-30T07:02:39.410Z,80.24
2019-04-30T07:03:39.289Z,80.75
2019-04-30T07:04:40.177Z,80.10
2019-04-30T07:05:39.355Z,79.80
2019-04-30T07:06:43.977Z,80.24
2019-04-30T07:07:41.741Z,79.90
2019-04-30T07:08:42.794Z,79.43
2019-04-30T07:09:52.080Z,79.43
2019-04-30T07:10:47.663Z,79.83
2019-04-30T07:11:40.195Z,80.24
2019-04-30T07:12:39.209Z,79.93
2019-04-30T07:13:39.589Z,79.93
2019-04-30T07:14:41.749Z,79.43
2019-04-30T07:15:39.524Z,79.80
2019-04-30T07:16:39.709Z,80.41
2019-04-30T07:17:40.693Z,80.10
2019-04-30T07:18:39.118Z,80.71
2019-04-30T07:19:53.408Z,79.59
2019-04-30T07:20:40.093Z,79.66
2019-04-30T07:21:42.708Z,79.86
2019-04-30T07:22:48.950Z,78.12
2019-04-30T07:23:40.063Z,77.37
2019-04-30T07:24:39.496Z,77.58
2019-04-30T07:25:39.242Z,77.48
2019-04-30T07:26:39.030Z,77.27
2019-04-30T07:27:40.153Z,77.78
2019-04-30T07:31:19.270Z,76.87
2019-04-30T07:32:19.686Z,76.73
2019-04-30T07:33:20.793Z,76.35
2019-04-30T07:34:19.615Z,75.13
2019-04-30T07:35:19.558Z,75.10
2019-04-30T07:36:19.579Z,76.22
2019-04-30T07:37:24.261Z,75.30
2019-04-30T07:38:19.504Z,75.40
2019-04-30T07:39:19.215Z,76.49
2019-04-30T07:40:19.054Z,76.18
2019-04-30T07:41:19.007Z,74.25
2019-04-30T07:42:19.187Z,74.96
2019-04-30T07:43:18.975Z,74.76
2019-04-30T07:44:31.054Z,75.57
2019-04-30T07:45:19.644Z,75.33
2019-04-30T07:46:19.979Z,74.82
2019-04-30T07:47:19.399Z,73.71
2019-04-30T07:48:21.083Z,73.80
2019-04-30T07:49:20.606Z,73.87
2019-04-30T07:50:21.073Z,73.97
2019-04-30T07:51:21.313Z,74.18
2019-04-30T07:52:20.808Z,73.97
2019-04-30T07:53:18.770Z,73.06
2019-04-30T07:54:18.960Z,72.58
2019-04-30T07:55:19.592Z,73.71
2019-04-30T07:56:25.659Z,74.48
2019-04-30T07:57:19.342Z,73.91
2019-04-30T07:58:20.414Z,73.94
2019-04-30T08:02:14.259Z,69.02
2019-04-30T08:03:10.770Z,70.68
2019-04-30T08:04:08.966Z,71.16
2019-04-30T08:05:10.520Z,72.34
2019-04-30T08:06:10.067Z,71.33
2019-04-30T08:07:09.750Z,70.51
2019-04-30T08:08:20.642Z,69.26
2019-04-30T08:09:10.399Z,67.13
2019-04-30T08:10:08.737Z,67.36
2019-04-30T08:11:09.268Z,67.74
2019-04-30T08:12:09.242Z,67.97
2019-04-30T08:13:13.837Z,69.36
2019-04-30T08:14:09.874Z,68.14
2019-04-30T08:15:09.658Z,66.44
2019-04-30T08:16:09.774Z,67.94
2019-04-30T08:17:08.830Z,67.13
2019-04-30T08:18:08.733Z,66.61
2019-04-30T08:19:09.159Z,67.63
2019-04-30T08:20:08.733Z,68.85
2019-04-30T08:21:09.427Z,68.55
2019-04-30T08:22:09.583Z,68.14
2019-04-30T08:23:20.180Z,68.14
2019-04-30T08:24:09.358Z,67.83
2019-04-30T08:25:09.717Z,68.72
2019-04-30T08:26:08.873Z,68.21
2019-04-30T08:27:09.748Z,67.13
2019-04-30T08:28:09.086Z,67.13
2019-04-30T08:29:09.583Z,66.82
2019-04-30T08:30:20.729Z,66.92
2019-04-30T08:31:09.122Z,67.22
2019-04-30T08:32:09.036Z,67.02
2019-04-30T08:33:09.481Z,66.31
2019-04-30T08:34:10.666Z,66.21
2019-04-30T08:35:09.898Z,66.52
2019-04-30T08:36:09.448Z,66.41
2019-04-30T08:37:16.983Z,66.61
2019-04-30T08:38:10.752Z,67.80
2019-04-30T08:39:09.690Z,67.19
2019-04-30T08:40:08.679Z,66.99
2019-04-30T08:41:09.299Z,68.38
2019-04-30T08:42:08.972Z,66.76
2019-04-30T08:43:09.538Z,66.35
2019-04-30T08:44:09.427Z,66.05
2019-04-30T08:45:09.493Z,65.33
2019-04-30T08:46:09.444Z,65.30
2019-04-30T08:47:08.632Z,66.02
2019-04-30T08:48:09.113Z,64.83
2019-04-30T08:49:09.706Z,63.91
2019-04-30T08:50:09.773Z,65.03
2019-04-30T08:51:09.973Z,65.74
2019-04-30T08:52:07.766Z,65.33
2019-04-30T08:53:07.724Z,64.76
2019-04-30T08:54:09.524Z,64.93
2019-04-30T08:55:14.121Z,65.03
2019-04-30T08:56:10.126Z,63.81
2019-04-30T08:57:08.593Z,64.73
2019-04-30T08:58:12.475Z,62.79
2019-04-30T08:59:11.122Z,62.08
2019-04-30T09:00:09.187Z,61.07
2019-04-30T09:01:08.797Z,61.68
2019-04-30T09:02:15.819Z,61.17
2019-04-30T09:03:09.334Z,61.57
2019-04-30T09:04:07.819Z,61.34
2019-04-30T09:05:09.330Z,60.33
2019-04-30T09:06:09.293Z,61.27
2019-04-30T09:07:10.058Z,61.57
2019-04-30T09:08:09.522Z,61.65
2019-04-30T09:09:10.720Z,61.57
2019-04-30T09:10:09.187Z,63.00
2019-04-30T09:11:19.839Z,62.01
2019-04-30T09:12:09.926Z,61.51
2019-04-30T09:13:09.109Z,61.91
2019-04-30T09:14:08.560Z,61.71
2019-04-30T09:15:09.169Z,61.30
2019-04-30T09:16:09.249Z,61.02
2019-04-30T09:17:09.178Z,61.60
2019-04-30T09:18:12.391Z,61.83
2019-04-30T09:19:09.748Z,63.43
2019-04-30T09:20:09.089Z,63.57
2019-04-30T09:21:09.012Z,62.82
2019-04-30T09:22:14.913Z,62.32
2019-04-30T09:23:10.982Z,62.32
2019-04-30T09:24:09.398Z,63.00
2019-04-30T09:25:09.226Z,63.10
2019-04-30T09:26:08.712Z,62.05
2019-04-30T09:27:10.644Z,61.24
2019-04-30T09:28:08.645Z,60.91
2019-04-30T09:29:09.202Z,60.30
2019-04-30T09:30:10.199Z,59.48
2019-04-30T09:31:08.750Z,59.08
2019-04-30T09:32:09.060Z,59.26
2019-04-30T09:33:10.942Z,59.26
2019-04-30T09:34:15.299Z,59.36
2019-04-30T09:35:09.581Z,58.95
2019-04-30T09:36:09.035Z,58.37
2019-04-30T09:37:08.692Z,58.88
2019-04-30T09:38:09.053Z,58.78
2019-04-30T09:39:08.965Z,58.80
2019-04-30T09:40:16.135Z,59.52
2019-04-30T09:41:09.354Z,58.09
2019-04-30T09:42:09.135Z,59.11
2019-04-30T09:43:08.679Z,59.08
2019-04-30T09:44:07.183Z,58.98
2019-04-30T09:45:08.763Z,59.77
2019-04-30T09:46:17.932Z,59.46
2019-04-30T09:47:08.858Z,56.11
2019-04-30T09:48:09.245Z,57.84
2019-04-30T09:49:07.112Z,57.53
2019-04-30T09:50:08.989Z,55.47
2019-04-30T09:51:07.481Z,56.29
2019-04-30T09:52:08.882Z,55.07
2019-04-30T09:53:07.053Z,55.98
2019-04-30T09:54:11.434Z,55.58
2019-04-30T09:55:09.628Z,55.78
2019-04-30T09:56:07.022Z,55.60
2019-04-30T09:57:08.773Z,56.21
2019-04-30T09:58:16.173Z,55.68
2019-04-30T09:59:09.101Z,57.30
2019-04-30T10:00:07.011Z,57.81
2019-04-30T10:01:09.287Z,56.57
2019-04-30T10:02:09.123Z,55.32
2019-04-30T10:03:09.865Z,55.93
2019-04-30T10:04:07.886Z,56.74
2019-04-30T10:05:07.446Z,55.60
2019-04-30T10:06:08.780Z,53.88
2019-04-30T10:07:06.899Z,54.61
2019-04-30T10:10:13.459Z,54.13
2019-04-30T10:10:48.678Z,55.35
2019-04-30T10:11:50.110Z,56.77
2019-04-30T10:12:49.286Z,55.65
2019-04-30T10:13:48.425Z,56.59
2019-04-30T10:14:49.492Z,55.88
2019-04-30T10:15:50.143Z,53.83
2019-04-30T10:16:49.571Z,54.13
2019-04-30T10:17:48.379Z,54.92
2019-04-30T10:18:48.378Z,54.82
2019-04-30T10:19:49.161Z,52.48
2019-04-30T10:20:48.370Z,53.88
2019-04-30T10:21:48.965Z,50.54
2019-04-30T10:22:49.529Z,49.80
2019-04-30T10:23:49.893Z,49.70
2019-04-30T10:24:49.454Z,49.11
2019-04-30T10:25:48.288Z,49.90
2019-04-30T10:26:48.298Z,49.50
2019-04-30T10:27:49.758Z,48.28
2019-04-30T10:28:48.252Z,50.31
2019-04-30T10:29:49.326Z,48.67
2019-04-30T10:30:48.255Z,49.10
2019-04-30T10:31:48.941Z,49.30
2019-04-30T10:32:50.067Z,48.77
2019-04-30T10:33:48.600Z,48.77
2019-04-30T10:34:48.188Z,48.97
2019-04-30T10:35:49.577Z,49.15
2019-04-30T10:36:49.479Z,49.96
2019-04-30T10:37:48.593Z,50.24
2019-04-30T10:38:49.415Z,51.07
2019-04-30T10:39:48.983Z,50.87
2019-04-30T10:40:48.761Z,50.14
2019-04-30T10:41:48.152Z,51.09
2019-04-30T10:42:48.887Z,51.53
2019-04-30T10:43:49.215Z,51.42
2019-04-30T10:44:48.102Z,51.95
2019-04-30T10:45:48.548Z,52.66
2019-04-30T10:46:48.055Z,53.27
2019-04-30T10:47:49.219Z,53.88
2019-04-30T10:48:48.035Z,54.18
2019-04-30T10:49:48.689Z,55.07
2019-04-30T10:50:49.192Z,53.52
2019-04-30T10:51:47.997Z,51.90
2019-04-30T10:52:49.171Z,52.99
2019-04-30T10:53:48.578Z,51.37
2019-04-30T10:54:49.621Z,50.54
2019-04-30T10:55:48.574Z,50.24
2019-04-30T10:56:49.019Z,48.72
2019-04-30T10:57:49.549Z,49.21
2019-04-30T10:58:48.142Z,49.41
2019-04-30T10:59:48.718Z,47.89
2019-04-30T11:00:49.697Z,48.68
2019-04-30T11:01:49.270Z,49.38
2019-04-30T11:02:49.654Z,49.76
2019-04-30T11:03:47.865Z,49.36
2019-04-30T11:04:47.861Z,48.73
2019-04-30T11:05:48.807Z,48.02
2019-04-30T11:06:47.840Z,48.22
2019-04-30T11:07:49.527Z,48.43
2019-04-30T11:08:47.807Z,48.22
2019-04-30T11:09:49.361Z,48.02
2019-04-30T11:10:47.785Z,49.01
2019-04-30T11:11:49.520Z,47.40
2019-04-30T11:12:47.760Z,46.39
2019-04-30T11:13:47.749Z,47.09
2019-04-30T11:14:47.755Z,48.43
2019-04-30T11:15:49.226Z,47.22
2019-04-30T11:16:51.262Z,48.10
2019-04-30T11:17:49.426Z,46.81
2019-04-30T11:18:47.841Z,46.89
2019-04-30T11:19:49.285Z,46.39
2019-04-30T11:20:49.625Z,46.19
2019-04-30T11:21:47.808Z,45.86
2019-04-30T11:22:47.879Z,45.26
2019-04-30T11:23:49.499Z,46.95
2019-04-30T11:24:58.881Z,46.25
2019-04-30T11:25:51.070Z,47.15
2019-04-30T11:26:50.176Z,47.17
2019-04-30T11:27:50.012Z,46.47
2019-04-30T11:28:47.748Z,47.25
2019-04-30T11:29:49.295Z,48.28
2019-04-30T11:30:47.719Z,47.19
2019-04-30T11:31:47.784Z,47.90
2019-04-30T11:32:47.833Z,48.41
2019-04-30T11:33:47.924Z,48.28
2019-04-30T11:34:47.520Z,47.78
2019-04-30T11:35:49.266Z,48.46
2019-04-30T11:36:48.513Z,47.83
2019-04-30T11:37:47.507Z,46.83
2019-04-30T11:38:48.749Z,45.82
2019-04-30T11:39:47.460Z,45.29
2019-04-30T11:40:48.605Z,45.59
2019-04-30T11:41:47.443Z,45.12
2019-04-30T11:42:47.454Z,45.09
2019-04-30T11:43:49.507Z,45.62
2019-04-30T11:44:48.821Z,44.41
2019-04-30T11:45:47.395Z,45.01
2019-04-30T11:46:49.457Z,45.59
2019-04-30T11:47:53.257Z,45.59
2019-04-30T11:48:49.027Z,45.50
2019-04-30T11:49:47.354Z,46.60
2019-04-30T11:50:49.553Z,46.78
2019-04-30T11:51:47.332Z,46.18
2019-04-30T11:52:47.340Z,45.09
2019-04-30T11:53:48.998Z,45.07
2019-04-30T11:54:51.597Z,45.59
2019-04-30T11:55:49.163Z,44.31
2019-04-30T11:56:50.307Z,44.31
2019-04-30T11:57:49.410Z,44.63
2019-04-30T11:58:48.892Z,45.24
2019-04-30T11:59:47.244Z,46.04
2019-04-30T12:00:47.226Z,46.62
2019-04-30T12:01:47.260Z,46.73
2019-04-30T12:02:49.083Z,45.70
2019-04-30T12:03:49.746Z,46.22
2019-04-30T12:04:49.328Z,47.20
2019-04-30T12:05:49.075Z,46.88
2019-04-30T12:06:47.178Z,45.00
2019-04-30T12:07:48.276Z,44.89
2019-04-30T12:08:49.131Z,45.37
2019-04-30T12:09:48.487Z,44.57
2019-04-30T12:10:47.115Z,44.47
2019-04-30T12:11:50.546Z,44.17
2019-04-30T12:12:48.706Z,44.19
2019-04-30T12:13:47.105Z,43.96
2019-04-30T12:14:47.071Z,45.37
2019-04-30T12:15:50.026Z,44.67
2019-04-30T12:16:47.051Z,44.69
2019-04-30T12:17:47.041Z,44.67
2019-04-30T12:18:47.068Z,44.17
2019-04-30T12:19:48.705Z,44.59
2019-04-30T12:20:47.003Z,44.39
2019-04-30T12:21:46.994Z,44.39
2019-04-30T12:22:46.981Z,44.69
2019-04-30T12:23:47.000Z,45.47
2019-04-30T12:24:48.761Z,45.78
2019-04-30T12:25:49.179Z,44.47
2019-04-30T12:26:48.899Z,45.55
2019-04-30T12:27:48.805Z,45.05
2019-04-30T12:28:46.939Z,44.55
2019-04-30T12:29:46.904Z,44.24
2019-04-30T12:30:48.785Z,43.84
2019-04-30T12:31:46.886Z,44.15
2019-04-30T12:32:46.885Z,44.47
2019-04-30T12:33:46.885Z,44.87
2019-04-30T12:34:46.850Z,44.65
2019-04-30T12:35:46.842Z,44.04
2019-04-30T12:36:46.827Z,43.84
2019-04-30T12:37:49.059Z,44.85
2019-04-30T12:38:46.845Z,44.45
2019-04-30T12:39:46.794Z,43.24
2019-04-30T12:40:46.781Z,42.94
2019-04-30T12:41:46.771Z,44.24
2019-04-30T12:42:48.607Z,43.14
2019-04-30T12:43:46.778Z,42.74
2019-04-30T12:44:46.737Z,43.04
2019-04-30T12:45:46.734Z,43.04
2019-04-30T12:46:48.520Z,43.95
2019-04-30T12:47:46.703Z,42.84
2019-04-30T12:48:46.702Z,42.33
2019-04-30T12:49:46.743Z,43.02
2019-04-30T12:50:46.674Z,42.41
2019-04-30T12:51:48.839Z,43.02
2019-04-30T12:52:46.649Z,43.82
2019-04-30T12:53:46.642Z,43.00
2019-04-30T12:54:46.654Z,43.20
2019-04-30T12:55:46.618Z,42.90
2019-04-30T12:56:46.607Z,42.80
2019-04-30T12:57:58.175Z,43.08
2019-04-30T12:58:47.588Z,40.89
2019-04-30T12:59:46.598Z,42.30